Atco, NJ

6:34 AM EDT on August 29, 2015 (GMT -0400)
Atco, NJ | | Change Station
CLOSE
Current Station
Personal Weather Station
Location: Atco, NJ
Elevation: 121 ft
Nearby Weather Stations

Elev 121 ft 39.77 °N, 74.83 °W | Updated 4 minutes ago

Clear
Clear
54.3 °F
Feels Like 54.3 °F
N
0.0
Wind Variable Wind from North
Gusts 0.0 mph

Today
High -- | Low -- °F
--% Chance of Precip.
Yesterday
High -- | Low -- °F
Precip. -- in
6:24 AM 7:35 PM
Full, 100% visible
Pressure 30.20 in
Visibility 9.0 miles
Clouds Clear
Dew Point 52 °F
Humidity 91%
Rainfall 0.00 in
Snow Depth Not available.
UV 0 out of 12
Pollen 9.40 out of 12
Air Quality Not available.
Flu Activity Not available.
METAR KVAY 290954Z AUTO 00000KT 9SM CLR 13/12 A3020 RMK AO2 SLP225 T01280122 $
Pressure 30.20 in
Visibility 9.0 miles
Clouds Clear
Dew Point 52 °F
Humidity 91%
Rainfall 0.00 in
Snow Depth Not available.
UV 0 out of 12
Pollen 9.40 out of 12
Air Quality Not available.
Flu Activity Not available.
METAR KVAY 290954Z AUTO 00000KT 9SM CLR 13/12 A3020 RMK AO2 SLP225 T01280122 $

10-Day Weather Forecast

×

Almanac

Astronomy

Aug. 29, 2015 Rise Set
Actual Time
Civil Twilight
Nautical Twilight
Astronomical Twilight
Moon
Length of Visible Light
Length of Day
Tomorrow will be .
, % of the Moon is Illuminated

Today's Extremes

State Highs State Lows

Community

WunderPhotos

Upload Photos

1,850,633 photos uploaded!

WunderBlogs® & News

Nearby

Air Quality

  Air Quality AQ Index Pollutant
Not available.

Snow Depth

Station Depth Elevation

Earthquake Activity

City Distance Mag. Time & Date
Minimum magnitude displayed is 2.5.

Coastal Water Temperatures

Place Temperature

Stations

Nearby Weather Stations

Station Location Temp. Windchill Dew Point Humidity Wind Precip. Elev Updated Type